createdAt,value
2023-07-05T00:00:58.565Z,1.65
2023-07-05T00:05:00.542Z,1.30
2023-07-05T00:09:02.209Z,1.40
2023-07-05T00:13:05.181Z,1.50
2023-07-05T00:17:07.166Z,1.50
2023-07-05T00:21:11.126Z,1.30
2023-07-05T00:25:13.186Z,2.15
2023-07-05T00:29:16.428Z,3.27
2023-07-05T00:33:18.528Z,4.20
2023-07-05T00:37:20.203Z,3.17
2023-07-05T00:41:22.089Z,3.40
2023-07-05T00:45:52.449Z,3.83
2023-07-05T00:49:58.377Z,3.13
2023-07-05T00:54:04.032Z,3.95
2023-07-05T00:58:06.182Z,4.72
2023-07-05T01:02:08.040Z,4.73
2023-07-05T01:06:09.996Z,4.35
2023-07-05T01:10:18.280Z,4.20
2023-07-05T01:14:34.317Z,4.13
2023-07-05T01:18:49.481Z,2.85
2023-07-05T01:23:00.205Z,2.70
2023-07-05T01:27:34.714Z,2.53
2023-07-05T01:31:59.656Z,2.83
2023-07-05T01:36:02.144Z,2.15
2023-07-05T01:40:22.523Z,2.05
2023-07-05T01:44:24.672Z,2.45
2023-07-05T01:48:55.158Z,2.17
2023-07-05T01:52:56.839Z,2.13
2023-07-05T01:57:13.174Z,2.65
2023-07-05T02:01:17.843Z,2.10
2023-07-05T02:05:20.706Z,2.28
2023-07-05T02:13:24.466Z,2.30
2023-07-05T02:17:26.355Z,2.42
2023-07-05T02:21:28.532Z,2.83
2023-07-05T02:25:32.663Z,2.17
2023-07-05T02:29:34.462Z,2.65
2023-07-05T02:33:36.545Z,2.70
2023-07-05T02:37:38.254Z,3.00
2023-07-05T02:41:40.977Z,2.80
2023-07-05T02:45:42.760Z,2.40
2023-07-05T02:49:44.463Z,2.42
2023-07-05T02:53:46.489Z,1.90
2023-07-05T02:57:48.183Z,2.10
2023-07-05T03:01:51.297Z,2.28
2023-07-05T03:06:00.361Z,2.40
2023-07-05T03:10:02.992Z,2.80
2023-07-05T03:14:05.062Z,2.27
2023-07-05T03:18:06.824Z,2.30
2023-07-05T03:26:11.597Z,1.80
2023-07-05T03:30:13.730Z,2.20
2023-07-05T03:34:17.128Z,2.00
2023-07-05T03:38:19.047Z,2.45
2023-07-05T03:42:21.127Z,2.10
2023-07-05T03:46:23.714Z,2.30
2023-07-05T03:50:25.654Z,2.10
2023-07-05T03:54:29.480Z,2.05
2023-07-05T03:58:31.669Z,1.80
2023-07-05T04:02:33.453Z,1.95
2023-07-05T04:06:35.319Z,1.80
2023-07-05T04:10:37.098Z,1.77
2023-07-05T04:14:38.947Z,2.33
2023-07-05T04:18:41.706Z,3.28
2023-07-05T04:22:43.572Z,2.50
2023-07-05T04:26:45.391Z,2.60
2023-07-05T04:30:47.251Z,2.50
2023-07-05T04:34:49.141Z,2.47
2023-07-05T04:38:51.492Z,2.63
2023-07-05T04:42:53.222Z,2.35
2023-07-05T04:46:55.574Z,2.50
2023-07-05T04:50:59.226Z,2.35
2023-07-05T04:55:00.975Z,2.33
2023-07-05T04:59:03.488Z,2.40
2023-07-05T05:03:05.417Z,2.15
2023-07-05T05:07:07.560Z,2.13
2023-07-05T05:11:09.785Z,2.77
2023-07-05T05:15:11.759Z,2.47
2023-07-05T05:19:15.628Z,2.53
2023-07-05T05:23:19.197Z,2.30
2023-07-05T05:27:21.732Z,2.97
2023-07-05T05:31:23.654Z,3.17
2023-07-05T05:35:25.549Z,4.03
2023-07-05T05:39:29.042Z,4.38
2023-07-05T05:43:32.288Z,4.75
2023-07-05T05:47:34.398Z,4.57
2023-07-05T05:51:36.161Z,5.07
2023-07-05T05:55:39.656Z,4.85
2023-07-05T05:59:42.217Z,4.95
2023-07-05T06:07:46.801Z,3.97
2023-07-05T06:11:49.231Z,3.47
2023-07-05T06:16:13.059Z,3.30
2023-07-05T06:20:16.291Z,3.10
2023-07-05T06:24:18.197Z,3.53
2023-07-05T06:28:21.576Z,2.72
2023-07-05T06:32:23.763Z,2.90
2023-07-05T06:36:26.804Z,2.47
2023-07-05T06:40:28.764Z,2.50
2023-07-05T06:44:31.186Z,2.50
2023-07-05T06:52:36.185Z,3.08
2023-07-05T06:56:38.606Z,2.65
2023-07-05T07:00:40.399Z,2.80
2023-07-05T07:04:44.325Z,3.17
2023-07-05T07:08:47.520Z,3.03
2023-07-05T07:12:50.438Z,3.47
2023-07-05T07:16:53.903Z,3.47
2023-07-05T07:20:57.043Z,3.92
2023-07-05T07:25:01.362Z,3.05
2023-07-05T07:29:05.425Z,3.15
2023-07-05T07:33:07.806Z,3.63
2023-07-05T07:37:10.224Z,4.10
2023-07-05T07:41:22.691Z,4.15
2023-07-05T07:45:24.639Z,3.25
2023-07-05T07:49:28.681Z,3.23
2023-07-05T07:53:31.199Z,2.40
2023-07-05T07:57:35.747Z,2.63
2023-07-05T08:01:39.681Z,2.75
2023-07-05T08:05:41.547Z,2.55
2023-07-05T08:09:44.213Z,2.95
2023-07-05T08:13:50.711Z,2.63
2023-07-05T08:17:52.560Z,2.95
2023-07-05T08:21:55.213Z,2.83
2023-07-05T08:25:58.207Z,2.65
2023-07-05T08:30:00.229Z,3.00
2023-07-05T08:34:02.836Z,2.60
2023-07-05T08:38:06.268Z,3.08
2023-07-05T08:42:27.232Z,2.97
2023-07-05T08:46:30.823Z,2.67
2023-07-05T08:50:40.131Z,2.80
2023-07-05T08:54:45.217Z,3.10
2023-07-05T08:58:52.735Z,3.33
2023-07-05T09:02:55.338Z,2.83
2023-07-05T09:11:16.596Z,2.65
2023-07-05T09:15:26.639Z,2.72
2023-07-05T09:19:50.713Z,3.00
2023-07-05T09:23:57.840Z,3.28
2023-07-05T09:28:22.572Z,2.85
2023-07-05T09:32:32.092Z,2.53
2023-07-05T09:36:35.148Z,2.17
2023-07-05T09:40:43.897Z,2.65
2023-07-05T09:44:46.668Z,2.25
2023-07-05T09:48:52.018Z,2.53
2023-07-05T09:53:00.972Z,2.35
2023-07-05T09:57:07.435Z,1.95
2023-07-05T10:01:19.521Z,2.58
2023-07-05T10:05:30.339Z,2.65
2023-07-05T10:09:33.210Z,2.45
2023-07-05T10:13:36.292Z,2.20
2023-07-05T10:21:45.213Z,2.40
2023-07-05T10:25:48.619Z,2.13
2023-07-05T10:29:51.615Z,2.10
2023-07-05T10:34:05.572Z,2.17
2023-07-05T10:38:19.900Z,1.67
2023-07-05T10:42:21.822Z,1.35
2023-07-05T10:46:27.745Z,1.40
2023-07-05T10:50:31.816Z,1.60
2023-07-05T10:54:39.183Z,1.50
2023-07-05T10:58:58.448Z,1.48
2023-07-05T11:03:13.204Z,1.42
2023-07-05T11:07:16.089Z,1.73
2023-07-05T11:11:26.058Z,1.50
2023-07-05T11:15:29.070Z,1.20
2023-07-05T11:19:33.238Z,1.27
2023-07-05T11:23:44.988Z,1.52
2023-07-05T11:27:57.098Z,1.73
2023-07-05T11:32:05.238Z,1.30
2023-07-05T11:36:32.781Z,1.27
2023-07-05T11:40:57.822Z,1.27
2023-07-05T11:45:01.257Z,1.42
2023-07-05T11:49:26.223Z,1.02
2023-07-05T11:53:33.187Z,1.60
2023-07-05T11:57:43.875Z,1.70
2023-07-05T12:01:45.814Z,1.40
2023-07-05T12:05:56.912Z,1.33
2023-07-05T12:10:00.382Z,1.60
2023-07-05T12:14:06.407Z,1.85
2023-07-05T12:18:14.578Z,1.45
2023-07-05T12:22:22.407Z,1.50
2023-07-05T12:26:35.497Z,1.55
2023-07-05T12:30:41.589Z,1.70
2023-07-05T12:34:46.044Z,1.48
2023-07-05T12:38:49.989Z,1.67
2023-07-05T12:43:06.038Z,1.38
2023-07-05T12:47:17.640Z,1.75
2023-07-05T12:51:23.226Z,1.85
2023-07-05T12:55:28.395Z,1.45
2023-07-05T12:59:44.614Z,2.00
2023-07-05T13:03:58.410Z,2.00
2023-07-05T13:08:03.229Z,1.52
2023-07-05T13:12:08.295Z,2.25
2023-07-05T13:16:31.164Z,1.77
2023-07-05T13:20:35.889Z,2.03
2023-07-05T13:24:38.485Z,1.70
2023-07-05T13:28:42.255Z,1.70
2023-07-05T13:32:51.146Z,1.38
2023-07-05T13:36:58.860Z,2.03
2023-07-05T13:41:01.019Z,1.90
2023-07-05T13:45:04.273Z,1.50
2023-07-05T13:49:12.477Z,1.83
2023-07-05T13:53:22.009Z,1.90
2023-07-05T13:57:26.408Z,1.88
2023-07-05T14:01:28.712Z,1.63
2023-07-05T14:05:30.930Z,1.80
2023-07-05T14:09:34.440Z,2.17
2023-07-05T14:13:37.676Z,1.73
2023-07-05T14:17:40.304Z,1.70
2023-07-05T14:21:42.279Z,1.75
2023-07-05T14:25:50.370Z,1.50
2023-07-05T14:29:55.263Z,2.00
2023-07-05T14:33:58.051Z,1.92
2023-07-05T14:38:00.642Z,2.30
2023-07-05T14:42:03.965Z,1.80
2023-07-05T14:46:11.254Z,1.80
2023-07-05T14:50:15.274Z,1.90
2023-07-05T14:54:18.304Z,1.92
2023-07-05T14:58:22.564Z,2.08
2023-07-05T15:02:25.028Z,2.55
2023-07-05T15:06:27.937Z,2.22
2023-07-05T15:10:32.491Z,2.15
2023-07-05T15:14:35.110Z,2.25
2023-07-05T15:18:38.296Z,2.30
2023-07-05T15:22:40.127Z,2.30
2023-07-05T15:26:41.909Z,1.98
2023-07-05T15:30:43.612Z,2.20
2023-07-05T15:34:48.299Z,2.30
2023-07-05T15:38:50.737Z,2.10
2023-07-05T15:46:58.174Z,2.50
2023-07-05T15:51:00.037Z,2.55
2023-07-05T15:55:02.320Z,2.53
2023-07-05T15:59:13.699Z,2.75
2023-07-05T16:03:16.070Z,2.28
2023-07-05T16:07:18.943Z,2.00
2023-07-05T16:11:21.878Z,2.28
2023-07-05T16:15:24.304Z,2.22
2023-07-05T16:23:28.503Z,2.33
2023-07-05T16:27:30.216Z,2.30
2023-07-05T16:31:32.051Z,2.07
2023-07-05T16:35:34.328Z,2.17
2023-07-05T16:39:36.675Z,2.17
2023-07-05T16:43:38.415Z,2.47
2023-07-05T16:47:46.683Z,2.22
2023-07-05T16:51:48.972Z,2.58
2023-07-05T16:55:51.480Z,1.98
2023-07-05T16:59:54.752Z,2.30
2023-07-05T17:03:57.354Z,2.22
2023-07-05T17:07:59.572Z,2.10
2023-07-05T17:12:02.021Z,2.10
2023-07-05T17:16:05.090Z,2.03
2023-07-05T17:20:07.413Z,1.70
2023-07-05T17:24:11.971Z,1.85
2023-07-05T17:28:15.403Z,2.03
2023-07-05T17:32:17.164Z,2.03
2023-07-05T17:36:22.011Z,1.83
2023-07-05T17:40:25.469Z,1.67
2023-07-05T17:48:28.841Z,1.73
2023-07-05T17:52:30.621Z,1.97
2023-07-05T17:56:34.091Z,2.47
2023-07-05T18:00:36.000Z,1.85
2023-07-05T18:04:37.892Z,1.80
2023-07-05T18:08:41.343Z,1.97
2023-07-05T18:12:43.292Z,1.80
2023-07-05T18:16:45.249Z,1.47
2023-07-05T18:20:46.977Z,1.60
2023-07-05T18:24:49.396Z,1.70
2023-07-05T18:28:53.439Z,1.90
2023-07-05T18:32:55.677Z,1.30
2023-07-05T18:36:57.836Z,1.43
2023-07-05T18:41:04.916Z,1.85
2023-07-05T18:45:08.537Z,1.80
2023-07-05T18:49:10.437Z,1.83
2023-07-05T18:53:12.454Z,2.30
2023-07-05T18:57:16.505Z,1.73
2023-07-05T19:01:20.374Z,1.85
2023-07-05T19:05:25.195Z,1.90
2023-07-05T19:09:27.657Z,1.63
2023-07-05T19:13:32.153Z,1.67
2023-07-05T19:17:34.091Z,1.67
2023-07-05T19:21:36.579Z,1.80
2023-07-05T19:25:42.992Z,1.50
2023-07-05T19:29:44.979Z,2.50
2023-07-05T19:33:48.409Z,2.10
2023-07-05T19:37:50.223Z,1.67
2023-07-05T19:41:52.434Z,1.60
2023-07-05T19:45:55.473Z,1.80
2023-07-05T19:49:57.850Z,1.42
2023-07-05T19:54:00.508Z,2.03
2023-07-05T19:58:03.502Z,2.00
2023-07-05T20:02:06.055Z,1.50
2023-07-05T20:06:09.246Z,1.88
2023-07-05T20:10:11.229Z,1.75
2023-07-05T20:14:13.368Z,1.80
2023-07-05T20:18:16.447Z,1.65
2023-07-05T20:22:18.339Z,1.70
2023-07-05T20:26:20.169Z,1.58
2023-07-05T20:30:23.555Z,1.60
2023-07-05T20:34:25.476Z,1.55
2023-07-05T20:38:29.348Z,2.08
2023-07-05T20:42:31.115Z,1.95
2023-07-05T20:46:32.962Z,1.85
2023-07-05T20:50:34.853Z,1.80
2023-07-05T20:54:37.833Z,1.77
2023-07-05T20:58:39.877Z,2.15
2023-07-05T21:02:41.574Z,2.05
2023-07-05T21:06:44.256Z,2.38
2023-07-05T21:10:47.656Z,2.47
2023-07-05T21:14:49.522Z,1.80
2023-07-05T21:18:51.406Z,2.08
2023-07-05T21:22:53.350Z,1.97
2023-07-05T21:26:55.871Z,2.37
2023-07-05T21:31:00.712Z,2.00
2023-07-05T21:35:03.046Z,2.15
2023-07-05T21:39:06.313Z,2.42
2023-07-05T21:43:09.491Z,1.85
2023-07-05T21:47:11.223Z,2.13
2023-07-05T21:51:13.971Z,1.90
2023-07-05T21:55:16.412Z,1.83
2023-07-05T21:59:18.315Z,1.58
2023-07-05T22:03:20.151Z,2.28
2023-07-05T22:07:22.046Z,1.87
2023-07-05T22:11:24.409Z,2.08
2023-07-05T22:15:29.087Z,2.08
2023-07-05T22:19:31.107Z,2.55
2023-07-05T22:23:32.883Z,2.23
2023-07-05T22:27:34.718Z,1.88
2023-07-05T22:31:38.825Z,1.85
2023-07-05T22:35:41.153Z,2.45
2023-07-05T22:39:43.086Z,2.67
2023-07-05T22:43:47.304Z,2.20
2023-07-05T22:47:49.218Z,2.15
2023-07-05T22:51:51.066Z,2.10
2023-07-05T22:55:56.435Z,2.28
2023-07-05T22:59:59.103Z,2.25
2023-07-05T23:04:02.327Z,2.00
2023-07-05T23:08:04.391Z,2.15
2023-07-05T23:12:08.166Z,2.00
2023-07-05T23:16:12.126Z,2.08
2023-07-05T23:20:13.974Z,2.10
2023-07-05T23:24:16.684Z,2.28
2023-07-05T23:28:18.487Z,1.95
2023-07-05T23:32:20.427Z,2.47
2023-07-05T23:36:25.513Z,2.43
2023-07-05T23:40:27.436Z,2.30
2023-07-05T23:44:29.125Z,2.17
2023-07-05T23:48:36.251Z,2.10
2023-07-05T23:52:38.644Z,2.05
2023-07-05T23:56:49.520Z,1.90
